createdAt,value
2022-11-08T00:00:13.556Z,7.87
2022-11-08T00:01:13.530Z,7.82
2022-11-08T00:02:13.690Z,7.78
2022-11-08T00:03:13.598Z,7.77
2022-11-08T00:04:13.536Z,7.73
2022-11-08T00:05:13.554Z,7.71
2022-11-08T00:06:13.544Z,7.68
2022-11-08T00:07:13.549Z,7.66
2022-11-08T00:08:13.582Z,7.66
2022-11-08T00:09:13.546Z,7.62
2022-11-08T00:10:13.535Z,7.58
2022-11-08T00:11:13.523Z,7.55
2022-11-08T00:12:13.543Z,7.49
2022-11-08T00:13:13.555Z,7.48
2022-11-08T00:14:13.559Z,7.43
2022-11-08T00:15:13.612Z,7.39
2022-11-08T00:16:13.576Z,7.37
2022-11-08T00:17:13.567Z,7.35
2022-11-08T00:18:13.611Z,7.30
2022-11-08T00:19:13.619Z,7.27
2022-11-08T00:20:13.623Z,7.25
2022-11-08T00:21:13.631Z,7.20
2022-11-08T00:22:13.657Z,7.15
2022-11-08T00:23:13.664Z,7.13
2022-11-08T00:24:13.683Z,7.08
2022-11-08T00:25:13.677Z,7.05
2022-11-08T00:26:13.707Z,7.04
2022-11-08T00:27:13.702Z,7.04
2022-11-08T00:28:13.768Z,7.00
2022-11-08T00:29:13.744Z,6.99
2022-11-08T00:30:13.731Z,6.97
2022-11-08T00:31:13.750Z,6.94
2022-11-08T00:32:13.769Z,6.93
2022-11-08T00:33:13.761Z,6.91
2022-11-08T00:34:13.793Z,6.88
2022-11-08T00:35:13.807Z,6.86
2022-11-08T00:36:13.819Z,6.85
2022-11-08T00:37:13.843Z,6.86
2022-11-08T00:38:13.979Z,6.85
2022-11-08T00:39:13.863Z,6.83
2022-11-08T00:40:13.872Z,6.81
2022-11-08T00:41:13.876Z,6.80
2022-11-08T00:42:13.880Z,6.80
2022-11-08T00:43:13.890Z,6.79
2022-11-08T00:44:13.904Z,6.78
2022-11-08T00:45:13.935Z,6.76
2022-11-08T00:46:13.929Z,6.76
2022-11-08T00:47:13.942Z,6.76
2022-11-08T00:48:14.033Z,6.77
2022-11-08T00:49:13.981Z,6.75
2022-11-08T00:50:13.988Z,6.77
2022-11-08T00:51:13.988Z,6.77
2022-11-08T00:52:14.007Z,6.77
2022-11-08T00:53:14.050Z,6.79
2022-11-08T00:54:14.010Z,6.78
2022-11-08T00:55:14.039Z,6.78
2022-11-08T00:56:14.072Z,6.78
2022-11-08T00:57:14.065Z,6.76
2022-11-08T00:58:14.088Z,6.75
2022-11-08T00:59:14.089Z,6.73
2022-11-08T01:00:14.095Z,6.70
2022-11-08T01:01:14.219Z,6.67
2022-11-08T01:02:14.205Z,6.67
2022-11-08T01:03:14.153Z,6.66
2022-11-08T01:04:14.160Z,6.67
2022-11-08T01:05:14.155Z,6.66
2022-11-08T01:06:14.171Z,6.70
2022-11-08T01:07:14.207Z,6.74
2022-11-08T01:08:14.347Z,6.75
2022-11-08T01:09:14.195Z,6.74
2022-11-08T01:10:14.211Z,6.73
2022-11-08T01:11:14.227Z,6.72
2022-11-08T01:12:14.257Z,6.69
2022-11-08T01:13:14.280Z,6.69
2022-11-08T01:14:35.062Z,6.65
2022-11-08T01:15:35.133Z,6.63
2022-11-08T01:16:35.100Z,6.59
2022-11-08T01:17:35.098Z,6.56
2022-11-08T01:18:35.103Z,6.56
2022-11-08T01:19:35.103Z,6.53
2022-11-08T01:20:35.092Z,6.52
2022-11-08T01:21:35.116Z,6.53
2022-11-08T01:22:35.107Z,6.57
2022-11-08T01:23:35.116Z,6.58
2022-11-08T01:24:35.120Z,6.57
2022-11-08T01:25:35.127Z,6.58
2022-11-08T01:26:35.118Z,6.59
2022-11-08T01:27:35.124Z,6.61
2022-11-08T01:28:35.138Z,6.59
2022-11-08T01:29:35.151Z,6.57
2022-11-08T01:30:35.129Z,6.53
2022-11-08T01:31:35.141Z,6.54
2022-11-08T01:32:35.131Z,6.52
2022-11-08T01:33:35.148Z,6.50
2022-11-08T01:34:35.137Z,6.50
2022-11-08T01:35:35.139Z,6.50
2022-11-08T01:36:35.145Z,6.52
2022-11-08T01:37:35.135Z,6.55
2022-11-08T01:38:35.169Z,6.63
2022-11-08T01:39:35.137Z,6.80
2022-11-08T01:40:35.137Z,7.12
2022-11-08T01:41:35.138Z,7.37
2022-11-08T01:42:35.138Z,7.60
2022-11-08T01:43:35.186Z,7.80
2022-11-08T01:44:35.135Z,8.01
2022-11-08T01:45:35.139Z,8.22
2022-11-08T01:46:35.117Z,8.36
2022-11-08T01:47:35.138Z,8.45
2022-11-08T01:48:35.150Z,8.52
2022-11-08T01:49:35.154Z,8.60
2022-11-08T01:50:35.136Z,8.68
2022-11-08T01:51:35.276Z,8.83
2022-11-08T01:52:35.296Z,8.89
2022-11-08T01:53:35.314Z,8.93
2022-11-08T01:54:35.319Z,8.93
2022-11-08T01:55:35.326Z,8.96
2022-11-08T01:56:35.335Z,8.97
2022-11-08T01:57:35.353Z,8.97
2022-11-08T01:58:35.364Z,8.98
2022-11-08T01:59:35.375Z,8.96
2022-11-08T02:00:35.376Z,8.95
2022-11-08T02:01:35.491Z,8.95
2022-11-08T02:02:35.441Z,8.95
2022-11-08T02:03:35.412Z,8.93
2022-11-08T02:04:35.466Z,8.95
2022-11-08T02:05:35.449Z,8.97
2022-11-08T02:06:35.504Z,8.99
2022-11-08T02:07:35.459Z,8.98
2022-11-08T02:08:35.487Z,8.96
2022-11-08T02:09:35.500Z,8.95
2022-11-08T02:10:35.515Z,8.95
2022-11-08T02:11:35.538Z,8.95
2022-11-08T02:12:35.553Z,8.96
2022-11-08T02:13:35.541Z,8.96
2022-11-08T02:14:35.561Z,8.99
2022-11-08T02:15:35.565Z,8.98
2022-11-08T02:16:35.579Z,9.00
2022-11-08T02:17:35.591Z,9.04
2022-11-08T02:18:35.624Z,9.09
2022-11-08T02:19:35.647Z,9.08
2022-11-08T02:20:35.614Z,9.08
2022-11-08T02:21:35.653Z,9.06
2022-11-08T02:22:35.645Z,9.04
2022-11-08T02:23:35.658Z,9.03
2022-11-08T02:24:35.676Z,9.00
2022-11-08T02:25:35.690Z,8.98
2022-11-08T02:26:35.703Z,8.98
2022-11-08T02:27:35.713Z,9.01
2022-11-08T02:28:35.717Z,9.04
2022-11-08T02:29:35.756Z,9.04
2022-11-08T02:30:35.749Z,9.04
2022-11-08T02:31:35.757Z,9.05
2022-11-08T02:32:35.771Z,9.09
2022-11-08T02:33:35.770Z,9.14
2022-11-08T02:34:35.817Z,9.23
2022-11-08T02:35:35.807Z,9.27
2022-11-08T02:36:35.813Z,9.30
2022-11-08T02:37:35.826Z,9.31
2022-11-08T02:38:35.848Z,9.31
2022-11-08T02:39:35.867Z,9.33
2022-11-08T02:40:35.891Z,9.32
2022-11-08T02:41:35.880Z,9.31
2022-11-08T02:42:35.891Z,9.30
2022-11-08T02:43:35.903Z,9.30
2022-11-08T02:44:35.925Z,9.31
2022-11-08T02:45:35.935Z,9.30
2022-11-08T02:46:35.930Z,9.30
2022-11-08T02:47:35.948Z,9.30
2022-11-08T02:48:35.955Z,9.31
2022-11-08T02:49:35.985Z,9.36
2022-11-08T02:50:35.987Z,9.36
2022-11-08T02:51:35.997Z,9.38
2022-11-08T02:52:36.013Z,9.39
2022-11-08T02:53:36.021Z,9.40
2022-11-08T02:54:36.047Z,9.39
2022-11-08T02:55:36.130Z,9.39
2022-11-08T02:56:36.073Z,9.38
2022-11-08T02:57:36.068Z,9.37
2022-11-08T02:58:36.073Z,9.41
2022-11-08T02:59:36.094Z,9.44
2022-11-08T03:00:36.157Z,9.44
2022-11-08T03:01:36.299Z,9.47
2022-11-08T03:02:36.155Z,9.44
2022-11-08T03:03:36.152Z,9.43
2022-11-08T03:04:36.149Z,9.43
2022-11-08T03:05:36.173Z,9.41
2022-11-08T03:06:36.218Z,9.39
2022-11-08T03:07:36.191Z,9.41
2022-11-08T03:08:36.198Z,9.42
2022-11-08T03:09:36.221Z,9.41
2022-11-08T03:10:36.211Z,9.38
2022-11-08T03:11:36.249Z,9.36
2022-11-08T03:12:36.251Z,9.34
2022-11-08T03:13:36.264Z,9.35
2022-11-08T03:14:36.276Z,9.34
2022-11-08T03:15:36.280Z,9.33
2022-11-08T03:16:36.277Z,9.34
2022-11-08T03:17:36.324Z,9.34
2022-11-08T03:18:36.324Z,9.30
2022-11-08T03:19:36.326Z,9.26
2022-11-08T03:20:36.361Z,9.20
2022-11-08T03:21:36.368Z,9.15
2022-11-08T03:22:36.417Z,9.06
2022-11-08T03:23:36.390Z,8.99
2022-11-08T03:24:36.391Z,8.90
2022-11-08T03:25:36.413Z,8.82
2022-11-08T03:26:36.427Z,8.77
2022-11-08T03:27:36.457Z,8.74
2022-11-08T03:28:36.444Z,8.71
2022-11-08T03:29:36.460Z,8.70
2022-11-08T03:30:36.473Z,8.66
2022-11-08T03:31:36.476Z,8.58
2022-11-08T03:32:36.498Z,8.45
2022-11-08T03:33:36.503Z,8.36
2022-11-08T03:34:36.514Z,8.27
2022-11-08T03:35:36.528Z,8.15
2022-11-08T03:36:36.555Z,8.06
2022-11-08T03:37:36.557Z,7.97
2022-11-08T03:38:36.574Z,7.87
2022-11-08T03:39:36.572Z,7.78
2022-11-08T03:40:36.593Z,7.71
2022-11-08T03:41:36.613Z,7.64
2022-11-08T03:42:36.619Z,7.57
2022-11-08T03:43:36.613Z,7.50
2022-11-08T03:44:36.628Z,7.45
2022-11-08T03:45:36.652Z,7.36
2022-11-08T03:46:36.658Z,7.31
2022-11-08T03:47:36.676Z,7.25
2022-11-08T03:48:36.679Z,7.19
2022-11-08T03:49:36.712Z,7.14
2022-11-08T03:50:36.715Z,7.08
2022-11-08T03:51:36.712Z,7.04
2022-11-08T03:52:36.730Z,7.03
2022-11-08T03:53:36.804Z,6.99
2022-11-08T03:54:36.747Z,6.95
2022-11-08T03:55:36.765Z,6.92
2022-11-08T03:56:36.775Z,6.97
2022-11-08T03:57:36.780Z,7.13
2022-11-08T03:58:36.851Z,7.33
2022-11-08T03:59:36.812Z,7.52
2022-11-08T04:00:36.833Z,7.69
2022-11-08T04:01:36.932Z,7.82
2022-11-08T04:02:36.936Z,7.98
2022-11-08T04:03:36.865Z,8.09
2022-11-08T04:04:36.889Z,8.20
2022-11-08T04:05:36.882Z,8.23
2022-11-08T04:06:36.904Z,8.28
2022-11-08T04:07:36.924Z,8.31
2022-11-08T04:08:36.930Z,8.33
2022-11-08T04:09:36.943Z,8.34
2022-11-08T04:10:36.975Z,8.33
2022-11-08T04:11:36.960Z,8.36
2022-11-08T04:12:36.962Z,8.38
2022-11-08T04:13:36.980Z,8.37
2022-11-08T04:14:37.012Z,8.38
2022-11-08T04:15:37.009Z,8.36
2022-11-08T04:16:37.062Z,8.37
2022-11-08T04:17:37.035Z,8.37
2022-11-08T04:18:37.031Z,8.36
2022-11-08T04:19:37.073Z,8.34
2022-11-08T04:20:37.055Z,8.34
2022-11-08T04:21:37.066Z,8.35
2022-11-08T04:22:37.081Z,8.36
2022-11-08T04:23:37.099Z,8.35
2022-11-08T04:24:37.128Z,8.33
2022-11-08T04:25:37.136Z,8.31
2022-11-08T04:26:37.144Z,8.29
2022-11-08T04:27:37.145Z,8.27
2022-11-08T04:28:37.167Z,8.25
2022-11-08T04:29:37.176Z,8.24
2022-11-08T04:30:37.180Z,8.21
2022-11-08T04:31:37.223Z,8.20
2022-11-08T04:32:37.200Z,8.18
2022-11-08T04:33:37.219Z,8.16
2022-11-08T04:34:37.236Z,8.13
2022-11-08T04:35:37.236Z,8.13
2022-11-08T04:36:37.247Z,8.11
2022-11-08T04:37:37.268Z,8.07
2022-11-08T04:38:37.322Z,8.01
2022-11-08T04:39:37.298Z,7.92
2022-11-08T04:40:37.302Z,7.80
2022-11-08T04:41:37.313Z,7.70
2022-11-08T04:42:37.328Z,7.60
2022-11-08T04:43:37.333Z,7.48
2022-11-08T04:44:37.365Z,7.38
2022-11-08T04:45:37.378Z,7.28
2022-11-08T04:46:37.371Z,7.19
2022-11-08T04:47:40.294Z,7.09
2022-11-08T04:48:37.383Z,7.00
2022-11-08T04:49:37.392Z,6.90
2022-11-08T04:50:37.408Z,6.82
2022-11-08T04:51:37.388Z,6.74
2022-11-08T04:52:37.399Z,6.67
2022-11-08T04:53:37.407Z,6.58
2022-11-08T04:54:37.392Z,6.50
2022-11-08T04:55:37.408Z,6.41
2022-11-08T04:56:37.405Z,6.35
2022-11-08T04:57:37.396Z,6.29
2022-11-08T04:58:37.412Z,6.24
2022-11-08T04:59:37.459Z,6.29
2022-11-08T05:00:37.399Z,6.43
2022-11-08T05:01:37.519Z,6.49
2022-11-08T05:02:37.531Z,6.68
2022-11-08T05:03:37.401Z,6.80
2022-11-08T05:04:37.395Z,6.90
2022-11-08T05:05:37.395Z,6.99
2022-11-08T05:06:37.396Z,7.05
2022-11-08T05:07:37.424Z,7.14
2022-11-08T05:08:37.400Z,7.24
2022-11-08T05:09:37.413Z,7.30
2022-11-08T05:10:37.404Z,7.36
2022-11-08T05:11:37.407Z,7.42
2022-11-08T05:12:37.416Z,7.48
2022-11-08T05:13:37.407Z,7.50
2022-11-08T05:14:37.450Z,7.55
2022-11-08T05:15:37.434Z,7.60
2022-11-08T05:16:37.421Z,7.65
2022-11-08T05:17:37.414Z,7.70
2022-11-08T05:18:37.410Z,7.78
2022-11-08T05:19:37.413Z,7.88
2022-11-08T05:20:37.443Z,7.96
2022-11-08T05:21:37.426Z,8.01
2022-11-08T05:22:37.434Z,8.04
2022-11-08T05:23:37.432Z,8.11
2022-11-08T05:24:37.460Z,8.18
2022-11-08T05:25:37.428Z,8.26
2022-11-08T05:26:37.422Z,8.31
2022-11-08T05:27:37.442Z,8.37
2022-11-08T05:28:37.403Z,8.41
2022-11-08T05:29:41.951Z,8.44
2022-11-08T05:30:37.430Z,8.47
2022-11-08T05:31:37.436Z,8.49
2022-11-08T05:32:37.448Z,8.50
2022-11-08T05:33:37.428Z,8.51
2022-11-08T05:34:37.424Z,8.57
2022-11-08T05:35:37.427Z,8.61
2022-11-08T05:36:37.444Z,8.65
2022-11-08T05:37:37.457Z,8.70
2022-11-08T05:38:37.427Z,8.74
2022-11-08T05:39:37.426Z,8.76
2022-11-08T05:40:37.431Z,8.78
2022-11-08T05:41:37.446Z,8.79
2022-11-08T05:42:37.462Z,8.83
2022-11-08T05:43:37.433Z,8.88
2022-11-08T05:44:37.507Z,8.89
2022-11-08T05:45:37.433Z,8.90
2022-11-08T05:46:37.447Z,8.90
2022-11-08T05:47:37.463Z,8.91
2022-11-08T05:48:37.449Z,8.92
2022-11-08T05:49:37.453Z,8.93
2022-11-08T05:50:37.441Z,8.94
2022-11-08T05:51:37.450Z,8.93
2022-11-08T05:52:37.449Z,8.89
2022-11-08T05:53:37.452Z,8.87
2022-11-08T05:54:37.449Z,8.84
2022-11-08T05:55:37.458Z,8.82
2022-11-08T05:56:37.453Z,8.83
2022-11-08T05:57:37.462Z,8.85
2022-11-08T05:58:37.470Z,8.86
2022-11-08T05:59:37.453Z,8.87
2022-11-08T06:00:37.462Z,8.88
2022-11-08T06:01:37.520Z,8.91
2022-11-08T06:02:37.515Z,8.98
2022-11-08T06:03:37.609Z,9.01
2022-11-08T06:04:37.457Z,9.01
2022-11-08T06:05:37.467Z,9.00
2022-11-08T06:06:37.465Z,8.97
2022-11-08T06:07:37.462Z,8.95
2022-11-08T06:08:37.464Z,8.90
2022-11-08T06:09:37.468Z,8.87
2022-11-08T06:10:37.462Z,8.85
2022-11-08T06:11:37.501Z,8.83
2022-11-08T06:12:37.460Z,8.81
2022-11-08T06:13:37.485Z,8.80
2022-11-08T06:14:37.473Z,8.81
2022-11-08T06:15:37.489Z,8.80
2022-11-08T06:16:37.467Z,8.82
2022-11-08T06:17:37.453Z,8.85
2022-11-08T06:18:37.502Z,8.85
2022-11-08T06:19:37.483Z,8.84
2022-11-08T06:20:37.499Z,8.84
2022-11-08T06:21:37.468Z,8.87
2022-11-08T06:22:37.466Z,8.85
2022-11-08T06:23:37.483Z,8.85
2022-11-08T06:24:37.469Z,8.86
2022-11-08T06:25:37.558Z,8.90
2022-11-08T06:26:37.472Z,8.91
2022-11-08T06:27:37.478Z,8.92
2022-11-08T06:28:37.480Z,8.92
2022-11-08T06:29:37.481Z,8.91
2022-11-08T06:30:37.495Z,8.92
2022-11-08T06:31:41.959Z,8.96
2022-11-08T06:32:37.498Z,8.97
2022-11-08T06:33:37.507Z,8.99
2022-11-08T06:34:37.482Z,8.99
2022-11-08T06:35:37.510Z,8.99
2022-11-08T06:36:37.536Z,9.03
2022-11-08T06:37:37.522Z,9.05
2022-11-08T06:38:37.505Z,9.07
2022-11-08T06:39:37.522Z,9.10
2022-11-08T06:40:37.502Z,9.12
2022-11-08T06:41:37.519Z,9.16
2022-11-08T06:42:37.533Z,9.22
2022-11-08T06:43:37.511Z,9.27
2022-11-08T06:44:37.509Z,9.30
2022-11-08T06:45:37.541Z,9.28
2022-11-08T06:46:37.541Z,9.27
2022-11-08T06:47:37.519Z,9.25
2022-11-08T06:48:37.584Z,9.24
2022-11-08T06:49:37.498Z,9.23
2022-11-08T06:50:37.481Z,9.22
2022-11-08T06:51:37.523Z,9.24
2022-11-08T06:52:37.544Z,9.24
2022-11-08T06:53:37.515Z,9.24
2022-11-08T06:54:37.544Z,9.24
2022-11-08T06:55:37.543Z,9.24
2022-11-08T06:56:37.524Z,9.22
2022-11-08T06:57:37.491Z,9.20
2022-11-08T06:58:37.535Z,9.20
2022-11-08T06:59:37.500Z,9.19
2022-11-08T07:00:37.523Z,9.18
2022-11-08T07:01:39.934Z,9.15
2022-11-08T07:02:37.634Z,9.12
2022-11-08T07:03:37.522Z,9.11
2022-11-08T07:04:37.533Z,9.12
2022-11-08T07:05:37.527Z,9.11
2022-11-08T07:06:37.526Z,9.10
2022-11-08T07:07:37.519Z,9.09
2022-11-08T07:08:37.804Z,9.10
2022-11-08T07:09:37.519Z,9.10
2022-11-08T07:10:37.552Z,9.09
2022-11-08T07:11:37.544Z,9.10
2022-11-08T07:12:37.539Z,9.12
2022-11-08T07:13:37.520Z,9.15
2022-11-08T07:15:16.565Z,9.12
2022-11-08T07:16:16.537Z,9.11
2022-11-08T07:17:16.565Z,9.08
2022-11-08T07:18:16.721Z,9.05
2022-11-08T07:19:16.550Z,9.06
2022-11-08T07:20:16.551Z,9.10
2022-11-08T07:21:16.522Z,9.14
2022-11-08T07:22:16.522Z,9.19
2022-11-08T07:23:16.542Z,9.23
2022-11-08T07:24:16.545Z,9.25
2022-11-08T07:25:16.556Z,9.25
2022-11-08T07:26:16.556Z,9.30
2022-11-08T07:27:16.556Z,9.31
2022-11-08T07:28:16.562Z,9.33
2022-11-08T07:29:16.567Z,9.33
2022-11-08T07:30:16.597Z,9.34
2022-11-08T07:31:16.576Z,9.36
2022-11-08T07:32:16.562Z,9.39
2022-11-08T07:33:17.120Z,9.42
2022-11-08T07:34:16.563Z,9.44
2022-11-08T07:35:16.583Z,9.52
2022-11-08T07:36:16.591Z,9.58
2022-11-08T07:37:16.582Z,9.60
2022-11-08T07:38:16.573Z,9.64
2022-11-08T07:39:16.586Z,9.69
2022-11-08T07:40:16.590Z,9.70
2022-11-08T07:41:16.621Z,9.75
2022-11-08T07:42:16.604Z,9.79
2022-11-08T07:43:16.589Z,9.81
2022-11-08T07:44:16.569Z,9.83
2022-11-08T07:45:16.576Z,9.84
2022-11-08T07:46:16.582Z,9.86
2022-11-08T07:47:16.593Z,9.88
2022-11-08T07:48:16.586Z,9.90
2022-11-08T07:49:16.604Z,9.94
2022-11-08T07:50:18.012Z,9.97
2022-11-08T07:51:16.727Z,10.01
2022-11-08T07:52:16.754Z,10.03
2022-11-08T07:53:17.235Z,10.05
2022-11-08T07:54:16.766Z,10.07
2022-11-08T07:55:16.770Z,10.05
2022-11-08T07:56:16.791Z,10.04
2022-11-08T07:57:16.806Z,10.03
2022-11-08T07:58:16.845Z,10.01
2022-11-08T07:59:16.825Z,9.99
2022-11-08T08:00:16.830Z,9.96
2022-11-08T08:01:16.848Z,9.96
2022-11-08T08:02:16.984Z,9.95
2022-11-08T08:03:17.212Z,9.93
2022-11-08T08:04:16.909Z,9.91
2022-11-08T08:05:16.909Z,9.90
2022-11-08T08:06:16.927Z,9.88
2022-11-08T08:07:16.925Z,9.85
2022-11-08T08:08:16.947Z,9.83
2022-11-08T08:09:16.960Z,9.83
2022-11-08T08:10:16.960Z,9.83
2022-11-08T08:11:16.968Z,9.85
2022-11-08T08:12:16.997Z,9.85
2022-11-08T08:13:17.143Z,9.86
2022-11-08T08:14:17.004Z,9.85
2022-11-08T08:15:17.030Z,9.85
2022-11-08T08:16:17.039Z,9.85
2022-11-08T08:17:17.049Z,9.88
2022-11-08T08:18:17.077Z,9.90
2022-11-08T08:19:17.081Z,9.92
2022-11-08T08:20:17.102Z,9.95
2022-11-08T08:21:17.103Z,9.98
2022-11-08T08:22:17.117Z,10.01
2022-11-08T08:23:17.494Z,10.00
2022-11-08T08:24:17.164Z,10.02
2022-11-08T08:25:17.153Z,10.04
2022-11-08T08:26:17.158Z,10.06
2022-11-08T08:27:17.168Z,10.07
2022-11-08T08:28:17.181Z,10.09
2022-11-08T08:29:17.246Z,10.14
2022-11-08T08:30:17.267Z,10.16
2022-11-08T08:31:17.247Z,10.17
2022-11-08T08:32:17.200Z,10.19
2022-11-08T08:33:28.843Z,10.23
2022-11-08T08:34:17.280Z,10.30
2022-11-08T08:35:17.271Z,10.39
2022-11-08T08:36:17.284Z,10.44
2022-11-08T08:37:17.260Z,10.49
2022-11-08T08:38:17.221Z,10.51
2022-11-08T08:39:17.281Z,10.50
2022-11-08T08:40:17.247Z,10.50
2022-11-08T08:41:17.304Z,10.48
2022-11-08T08:42:17.265Z,10.48
2022-11-08T08:43:17.737Z,10.48
2022-11-08T08:44:17.276Z,10.55
2022-11-08T08:45:17.282Z,10.62
2022-11-08T08:46:17.301Z,10.67
2022-11-08T08:47:17.284Z,10.71
2022-11-08T08:48:17.301Z,10.75
2022-11-08T08:49:17.311Z,10.79
2022-11-08T08:50:17.294Z,10.82
2022-11-08T08:51:17.293Z,10.85
2022-11-08T08:52:17.286Z,10.87
2022-11-08T08:53:17.536Z,10.89
2022-11-08T08:54:17.277Z,10.91
2022-11-08T08:55:17.295Z,10.94
2022-11-08T08:56:17.289Z,10.99
2022-11-08T08:57:17.309Z,11.01
2022-11-08T08:58:17.321Z,11.02
2022-11-08T09:01:39.930Z,11.14
2022-11-08T09:02:17.307Z,11.17
2022-11-08T09:03:17.747Z,11.23
2022-11-08T09:04:17.306Z,11.26
2022-11-08T09:05:17.311Z,11.29
2022-11-08T09:06:17.289Z,11.33
2022-11-08T09:07:17.340Z,11.36
2022-11-08T09:08:17.321Z,11.39
2022-11-08T09:09:17.330Z,11.42
2022-11-08T09:10:17.308Z,11.47
2022-11-08T09:11:17.310Z,11.50
2022-11-08T09:12:17.291Z,11.53
2022-11-08T09:13:17.640Z,11.57
2022-11-08T09:14:17.323Z,11.60
2022-11-08T09:15:17.353Z,11.64
2022-11-08T09:16:17.303Z,11.68
2022-11-08T09:17:17.324Z,11.72
2022-11-08T09:18:17.383Z,11.77
2022-11-08T09:19:17.327Z,11.80
2022-11-08T09:20:17.283Z,11.85
2022-11-08T09:21:17.378Z,11.88
2022-11-08T09:22:17.354Z,11.90
2022-11-08T09:23:17.720Z,11.90
2022-11-08T09:24:17.350Z,11.93
2022-11-08T09:25:17.347Z,11.94
2022-11-08T09:26:17.339Z,11.96
2022-11-08T09:27:17.328Z,11.98
2022-11-08T09:28:17.340Z,12.00
2022-11-08T09:29:17.358Z,12.01
2022-11-08T09:30:17.365Z,12.04
2022-11-08T09:31:17.325Z,12.04
2022-11-08T09:32:24.819Z,12.05
2022-11-08T09:33:17.770Z,12.08
2022-11-08T09:34:20.516Z,12.08
2022-11-08T09:35:17.366Z,12.05
2022-11-08T09:36:17.324Z,12.05
2022-11-08T09:37:17.343Z,12.04
2022-11-08T09:38:17.599Z,12.04
2022-11-08T09:39:17.344Z,12.03
2022-11-08T09:41:17.363Z,12.02
2022-11-08T09:42:17.334Z,12.02
2022-11-08T09:43:17.554Z,12.03
2022-11-08T09:44:17.348Z,12.01
2022-11-08T09:45:17.377Z,12.01
2022-11-08T09:46:17.356Z,12.02
2022-11-08T09:47:17.347Z,12.01
2022-11-08T09:48:17.355Z,11.98
2022-11-08T09:49:17.355Z,11.94
2022-11-08T09:50:17.364Z,11.93
2022-11-08T09:51:17.353Z,11.92
2022-11-08T09:52:17.341Z,11.92
2022-11-08T09:53:17.744Z,11.92
2022-11-08T09:54:19.492Z,11.91
2022-11-08T09:55:17.381Z,11.87
2022-11-08T09:56:17.348Z,11.84
2022-11-08T09:57:17.367Z,11.83
2022-11-08T09:58:17.370Z,11.81
2022-11-08T09:59:17.371Z,11.81
2022-11-08T10:00:17.380Z,11.81
2022-11-08T10:01:17.598Z,11.80
2022-11-08T10:02:17.428Z,11.81
2022-11-08T10:03:17.627Z,11.85
2022-11-08T10:04:17.362Z,11.86
2022-11-08T10:05:17.360Z,11.86
2022-11-08T10:06:18.168Z,11.86
2022-11-08T10:07:17.472Z,11.87
2022-11-08T10:08:17.361Z,11.86
2022-11-08T10:09:17.369Z,11.88
2022-11-08T10:10:17.372Z,11.90
2022-11-08T10:11:17.380Z,11.93
2022-11-08T10:12:17.390Z,11.98
2022-11-08T10:13:17.640Z,12.03
2022-11-08T10:14:17.400Z,12.06
2022-11-08T10:15:17.418Z,12.11
2022-11-08T10:16:17.435Z,12.13
2022-11-08T10:17:17.452Z,12.14
2022-11-08T10:18:17.463Z,12.21
2022-11-08T10:19:17.470Z,12.25
2022-11-08T10:20:17.477Z,12.29
2022-11-08T10:21:17.481Z,12.31
2022-11-08T10:22:17.516Z,12.36
2022-11-08T10:23:17.898Z,12.39
2022-11-08T10:24:17.519Z,12.43
2022-11-08T10:25:17.556Z,12.46
2022-11-08T10:26:20.536Z,12.50
2022-11-08T10:27:17.565Z,12.55
2022-11-08T10:28:17.570Z,12.59
2022-11-08T10:29:17.552Z,12.63
2022-11-08T10:30:17.567Z,12.68
2022-11-08T10:31:17.549Z,12.73
2022-11-08T10:32:17.560Z,12.77
2022-11-08T10:33:17.940Z,12.77
2022-11-08T10:34:17.576Z,12.79
2022-11-08T10:35:17.554Z,12.81
2022-11-08T10:36:17.556Z,12.86
2022-11-08T10:37:17.563Z,12.88
2022-11-08T10:38:17.558Z,12.89
2022-11-08T10:39:17.579Z,12.85
2022-11-08T10:40:17.560Z,12.85
2022-11-08T10:41:17.564Z,12.85
2022-11-08T10:42:17.563Z,12.85
2022-11-08T10:43:17.669Z,12.81
2022-11-08T10:44:17.556Z,12.77
2022-11-08T10:45:17.597Z,12.76
2022-11-08T10:46:17.598Z,12.78
2022-11-08T10:47:17.578Z,12.81
2022-11-08T10:48:17.946Z,12.84
2022-11-08T10:49:17.567Z,12.87
2022-11-08T10:50:17.611Z,12.89
2022-11-08T10:51:17.597Z,12.90
2022-11-08T10:52:17.582Z,12.91
2022-11-08T10:53:17.937Z,12.92
2022-11-08T10:54:17.580Z,12.94
2022-11-08T10:55:17.586Z,12.93
2022-11-08T10:56:17.594Z,12.94
2022-11-08T10:57:17.584Z,12.94
2022-11-08T10:58:17.850Z,12.94
2022-11-08T10:59:17.595Z,12.94
2022-11-08T11:00:17.674Z,12.97
2022-11-08T11:01:17.660Z,12.98
2022-11-08T11:02:17.643Z,12.99
2022-11-08T11:03:17.583Z,13.00
2022-11-08T11:04:17.603Z,13.01
2022-11-08T11:05:17.615Z,13.01
2022-11-08T11:06:17.602Z,13.02
2022-11-08T11:07:17.691Z,13.01
2022-11-08T11:08:17.858Z,13.03
2022-11-08T11:09:17.610Z,13.01
2022-11-08T11:10:17.677Z,13.01
2022-11-08T11:11:17.602Z,13.02
2022-11-08T11:12:17.630Z,13.02
2022-11-08T11:13:17.663Z,13.02
2022-11-08T11:14:21.952Z,13.03
2022-11-08T11:15:17.614Z,13.03
2022-11-08T11:16:17.619Z,13.04
2022-11-08T11:17:17.707Z,13.03
2022-11-08T11:18:17.857Z,13.03
2022-11-08T11:19:17.629Z,13.04
2022-11-08T11:20:17.610Z,13.01
2022-11-08T11:21:17.620Z,13.01
2022-11-08T11:22:17.623Z,12.98
2022-11-08T11:23:17.610Z,12.97
2022-11-08T11:24:19.404Z,12.98
2022-11-08T11:25:17.755Z,12.99
2022-11-08T11:26:17.726Z,12.98
2022-11-08T11:27:17.814Z,12.97
2022-11-08T11:28:18.125Z,12.96
2022-11-08T11:29:17.805Z,12.96
2022-11-08T11:30:17.819Z,12.97
2022-11-08T11:31:17.841Z,12.96
2022-11-08T11:32:17.856Z,12.97
2022-11-08T11:33:17.890Z,12.96
2022-11-08T11:34:17.957Z,12.95
2022-11-08T11:35:17.880Z,12.95
2022-11-08T11:36:17.891Z,12.95
2022-11-08T11:37:17.924Z,12.93
2022-11-08T11:38:18.235Z,12.92
2022-11-08T11:39:17.931Z,12.92
2022-11-08T11:40:17.936Z,12.91
2022-11-08T11:41:17.995Z,12.90
2022-11-08T11:42:43.868Z,12.90
2022-11-08T11:43:17.950Z,12.88
2022-11-08T11:44:17.984Z,12.88
2022-11-08T11:45:17.967Z,12.88
2022-11-08T11:46:17.997Z,12.87
2022-11-08T11:47:17.972Z,12.86
2022-11-08T11:48:18.478Z,12.85
2022-11-08T11:49:17.961Z,12.86
2022-11-08T11:50:17.970Z,12.85
2022-11-08T11:51:18.057Z,12.85
2022-11-08T11:52:17.968Z,12.85
2022-11-08T11:53:18.000Z,12.83
2022-11-08T11:54:17.965Z,12.82
2022-11-08T11:55:17.979Z,12.82
2022-11-08T11:56:17.973Z,12.84
2022-11-08T11:57:17.976Z,12.81
2022-11-08T11:58:18.254Z,12.77
2022-11-08T11:59:17.978Z,12.74
2022-11-08T12:00:17.990Z,12.75
2022-11-08T12:01:17.991Z,12.76
2022-11-08T12:02:18.054Z,12.75
2022-11-08T12:03:18.328Z,12.75
2022-11-08T12:04:17.993Z,12.75
2022-11-08T12:05:17.978Z,12.77
2022-11-08T12:06:17.994Z,12.78
2022-11-08T12:07:18.004Z,12.79
2022-11-08T12:08:18.231Z,12.80
2022-11-08T12:09:17.996Z,12.80
2022-11-08T12:10:18.021Z,12.79
2022-11-08T12:11:17.983Z,12.79
2022-11-08T12:12:17.984Z,12.79
2022-11-08T12:13:17.986Z,12.80
2022-11-08T12:14:18.040Z,12.80
2022-11-08T12:15:17.996Z,12.80
2022-11-08T12:16:17.979Z,12.80
2022-11-08T12:17:18.001Z,12.81
2022-11-08T12:18:36.687Z,12.80
2022-11-08T12:19:18.265Z,12.79
2022-11-08T12:20:20.509Z,12.78
2022-11-08T12:21:18.022Z,12.78
2022-11-08T12:22:18.003Z,12.76
2022-11-08T12:23:18.010Z,12.75
2022-11-08T12:24:18.018Z,12.75
2022-11-08T12:25:18.003Z,12.73
2022-11-08T12:26:18.000Z,12.74
2022-11-08T12:27:18.000Z,12.74
2022-11-08T12:28:18.299Z,12.75
2022-11-08T12:29:18.029Z,12.74
2022-11-08T12:30:18.041Z,12.73
2022-11-08T12:31:18.021Z,12.74
2022-11-08T12:32:18.015Z,12.74
2022-11-08T12:33:18.005Z,12.73
2022-11-08T12:34:18.062Z,12.74
2022-11-08T12:35:18.025Z,12.73
2022-11-08T12:36:18.007Z,12.75
2022-11-08T12:37:18.014Z,12.76
2022-11-08T12:38:18.175Z,12.77
2022-11-08T12:39:23.158Z,12.78
2022-11-08T12:40:18.039Z,12.78
2022-11-08T12:41:18.029Z,12.78
2022-11-08T12:42:18.023Z,12.78
2022-11-08T12:43:18.034Z,12.79
2022-11-08T12:44:18.025Z,12.79
2022-11-08T12:45:18.048Z,12.79
2022-11-08T12:46:17.996Z,12.80
2022-11-08T12:47:18.049Z,12.79
2022-11-08T12:48:18.378Z,12.80
2022-11-08T12:49:18.009Z,12.80
2022-11-08T12:50:18.050Z,12.80
2022-11-08T12:51:18.019Z,12.79
2022-11-08T12:52:18.032Z,12.79
2022-11-08T12:53:18.045Z,12.77
2022-11-08T12:54:18.058Z,12.76
2022-11-08T12:55:18.066Z,12.75
2022-11-08T12:56:18.032Z,12.76
2022-11-08T12:57:18.040Z,12.76
2022-11-08T12:58:18.362Z,12.76
2022-11-08T12:59:18.043Z,12.76
2022-11-08T13:00:18.062Z,12.77
2022-11-08T13:01:18.116Z,12.74
2022-11-08T13:02:18.049Z,12.72
2022-11-08T13:03:18.037Z,12.72
2022-11-08T13:04:18.061Z,12.74
2022-11-08T13:05:18.082Z,12.74
2022-11-08T13:06:18.081Z,12.77
2022-11-08T13:07:18.146Z,12.78
2022-11-08T13:08:18.344Z,12.77
2022-11-08T13:09:18.058Z,12.77
2022-11-08T13:10:18.068Z,12.77
2022-11-08T13:11:18.064Z,12.77
2022-11-08T13:12:18.065Z,12.78